EIN6374 EIDW-EDDH
Flight info
| Callsign | EIN6374 |
|---|---|
| Flight time | N/A |
| Altitude | 33000 |
| Route | ENDEQ3J ENDEQ Q36 ALAVA Z195 MALUD UL975 WAL M16 DOLAS L603 LAMSO DCT PETIK DCT ANDIK DCT GASTU DCT OSTOR/N0414F230 T904 RIBSO RIBSO3P |
| Aircraft | A320/M-SDE3FGHIRWY/LB1 |
Departure
| Time | N/A |
|---|---|
| Airport | Dublin Airport (EIDW) |
Arrival
| Time | 2026-05-04 18:39 |
|---|---|
| Airport | Hamburg Helmut Schmidt Airport (EDDH) |
| Time | Latitude | Longitude | Altitude | Speed | Heading |
|---|---|---|---|---|---|
| 2026-05-04 17:51 | 52.84110 | 2.15238 | 33023 ft | 466 kts | 103° |
| 2026-05-04 17:51 | 52.82811 | 2.25654 | 33026 ft | 466 kts | 104° |
| 2026-05-04 17:52 | 52.81487 | 2.36154 | 33029 ft | 467 kts | 104° |
| 2026-05-04 17:52 | 52.80147 | 2.46661 | 33032 ft | 467 kts | 104° |
| 2026-05-04 17:53 | 52.79352 | 2.57319 | 33026 ft | 471 kts | 93° |
| 2026-05-04 17:53 | 52.79243 | 2.68074 | 33023 ft | 472 kts | 93° |
| 2026-05-04 17:54 | 52.79151 | 2.78912 | 33026 ft | 472 kts | 93° |
| 2026-05-04 17:54 | 52.79045 | 2.89768 | 33028 ft | 472 kts | 93° |
| 2026-05-04 17:55 | 52.78910 | 3.00628 | 33031 ft | 473 kts | 94° |
| 2026-05-04 17:55 | 52.78763 | 3.11412 | 33020 ft | 473 kts | 94° |
| 2026-05-04 17:56 | 52.78608 | 3.22297 | 33033 ft | 474 kts | 94° |
| 2026-05-04 17:56 | 52.78453 | 3.33187 | 33035 ft | 474 kts | 94° |
| 2026-05-04 17:57 | 52.78288 | 3.44088 | 33030 ft | 475 kts | 94° |
| 2026-05-04 17:57 | 52.78109 | 3.54923 | 33017 ft | 475 kts | 95° |
| 2026-05-04 17:58 | 52.77919 | 3.65835 | 33011 ft | 476 kts | 95° |
| 2026-05-04 17:58 | 52.77719 | 3.76760 | 33017 ft | 476 kts | 95° |
| 2026-05-04 17:59 | 52.77511 | 3.87684 | 33014 ft | 476 kts | 95° |
| 2026-05-04 18:00 | 52.77173 | 4.04000 | 33000 ft | 476 kts | 96° |
| 2026-05-04 18:00 | 52.76936 | 4.14935 | 33004 ft | 477 kts | 96° |
| 2026-05-04 18:01 | 52.76692 | 4.25907 | 33005 ft | 478 kts | 96° |
| 2026-05-04 18:01 | 52.76434 | 4.36877 | 33009 ft | 479 kts | 96° |
| 2026-05-04 18:02 | 52.76037 | 4.53269 | 33004 ft | 478 kts | 96° |
| 2026-05-04 18:02 | 52.75762 | 4.64244 | 33006 ft | 478 kts | 96° |
| 2026-05-04 18:03 | 52.75469 | 4.75209 | 33016 ft | 478 kts | 96° |
| 2026-05-04 18:03 | 52.75675 | 4.86174 | 33010 ft | 485 kts | 78° |
| 2026-05-04 18:04 | 52.78115 | 4.96518 | 33008 ft | 488 kts | 69° |
| 2026-05-04 18:05 | 52.82145 | 5.11909 | 32989 ft | 489 kts | 69° |
| 2026-05-04 18:05 | 52.84828 | 5.22264 | 32994 ft | 490 kts | 69° |
| 2026-05-04 18:06 | 52.88820 | 5.37873 | 33004 ft | 491 kts | 69° |
| 2026-05-04 18:06 | 52.91468 | 5.48279 | 32999 ft | 492 kts | 69° |
| 2026-05-04 18:07 | 52.94107 | 5.58699 | 32983 ft | 492 kts | 69° |
| 2026-05-04 18:07 | 52.96749 | 5.69185 | 32992 ft | 494 kts | 69° |
| 2026-05-04 18:08 | 52.99398 | 5.79710 | 32998 ft | 495 kts | 69° |
| 2026-05-04 18:08 | 53.02042 | 5.90266 | 33001 ft | 495 kts | 69° |
| 2026-05-04 18:09 | 53.07280 | 6.11381 | 32994 ft | 496 kts | 69° |
| 2026-05-04 18:10 | 53.09896 | 6.22021 | 33014 ft | 497 kts | 69° |
| 2026-05-04 18:10 | 53.12514 | 6.32690 | 33008 ft | 498 kts | 69° |
| 2026-05-04 18:11 | 53.15128 | 6.43389 | 32998 ft | 499 kts | 69° |
| 2026-05-04 18:11 | 53.17717 | 6.54040 | 33000 ft | 500 kts | 69° |
| 2026-05-04 18:12 | 53.20320 | 6.64787 | 32998 ft | 500 kts | 69° |
| 2026-05-04 18:12 | 53.22907 | 6.75553 | 32980 ft | 501 kts | 69° |
| 2026-05-04 18:13 | 53.25486 | 6.86358 | 32990 ft | 501 kts | 69° |
| 2026-05-04 18:14 | 53.29349 | 7.02604 | 33004 ft | 502 kts | 70° |
| 2026-05-04 18:14 | 53.31921 | 7.13466 | 32759 ft | 504 kts | 70° |
| 2026-05-04 18:15 | 53.34463 | 7.24291 | 31958 ft | 504 kts | 70° |
| 2026-05-04 18:15 | 53.37021 | 7.35238 | 31184 ft | 505 kts | 70° |
| 2026-05-04 18:15 | 53.38301 | 7.40712 | 30811 ft | 505 kts | 71° |
| 2026-05-04 18:16 | 53.39580 | 7.46202 | 30437 ft | 505 kts | 71° |
| 2026-05-04 18:16 | 53.40853 | 7.51687 | 30048 ft | 505 kts | 71° |
| 2026-05-04 18:16 | 53.42121 | 7.57175 | 29622 ft | 505 kts | 71° |
| 2026-05-04 18:17 | 53.44650 | 7.68160 | 28775 ft | 499 kts | 71° |
| 2026-05-04 18:17 | 53.45888 | 7.73526 | 28422 ft | 487 kts | 71° |
| 2026-05-04 18:17 | 53.48242 | 7.83785 | 27874 ft | 462 kts | 70° |
| 2026-05-04 18:18 | 53.49376 | 7.88770 | 27615 ft | 452 kts | 70° |
| 2026-05-04 18:18 | 53.50481 | 7.93648 | 27351 ft | 442 kts | 70° |
| 2026-05-04 18:18 | 53.51559 | 7.98427 | 27090 ft | 434 kts | 70° |
| 2026-05-04 18:18 | 53.52616 | 8.03121 | 26832 ft | 425 kts | 70° |
| 2026-05-04 18:19 | 53.54679 | 8.12286 | 26313 ft | 415 kts | 70° |
| 2026-05-04 18:19 | 53.55678 | 8.16745 | 26070 ft | 412 kts | 70° |
| 2026-05-04 18:19 | 53.56685 | 8.21247 | 25821 ft | 410 kts | 70° |
| 2026-05-04 18:20 | 53.57686 | 8.25733 | 25580 ft | 408 kts | 69° |
| 2026-05-04 18:20 | 53.58684 | 8.30198 | 25329 ft | 407 kts | 69° |
| 2026-05-04 18:20 | 53.59674 | 8.34641 | 25074 ft | 405 kts | 69° |
| 2026-05-04 18:20 | 53.60658 | 8.39066 | 24831 ft | 403 kts | 69° |
| 2026-05-04 18:21 | 53.61640 | 8.43469 | 24591 ft | 401 kts | 69° |
| 2026-05-04 18:21 | 53.62616 | 8.47858 | 24309 ft | 399 kts | 69° |
| 2026-05-04 18:21 | 53.63599 | 8.52294 | 23550 ft | 408 kts | 68° |
| 2026-05-04 18:21 | 53.64576 | 8.56728 | 23272 ft | 400 kts | 68° |
| 2026-05-04 18:22 | 53.65517 | 8.61019 | 22707 ft | 392 kts | 68° |
| 2026-05-04 18:22 | 53.66455 | 8.65304 | 21971 ft | 387 kts | 69° |
| 2026-05-04 18:22 | 53.67381 | 8.69526 | 21276 ft | 381 kts | 69° |
| 2026-05-04 18:22 | 53.68295 | 8.73695 | 20592 ft | 377 kts | 69° |
| 2026-05-04 18:23 | 53.69198 | 8.77824 | 19903 ft | 373 kts | 69° |
| 2026-05-04 18:23 | 53.70087 | 8.81911 | 19259 ft | 369 kts | 69° |
| 2026-05-04 18:23 | 53.70963 | 8.85950 | 18646 ft | 364 kts | 69° |
| 2026-05-04 18:23 | 53.71829 | 8.89938 | 18011 ft | 359 kts | 69° |
| 2026-05-04 18:24 | 53.72681 | 8.93868 | 17341 ft | 354 kts | 69° |
| 2026-05-04 18:24 | 53.73521 | 8.97753 | 16685 ft | 350 kts | 69° |
| 2026-05-04 18:24 | 53.74335 | 9.01541 | 16052 ft | 346 kts | 69° |
| 2026-05-04 18:24 | 53.75153 | 9.05351 | 15423 ft | 343 kts | 69° |
| 2026-05-04 18:25 | 53.75963 | 9.09115 | 14790 ft | 340 kts | 69° |
| 2026-05-04 18:25 | 53.76766 | 9.12851 | 14163 ft | 337 kts | 69° |
| 2026-05-04 18:25 | 53.77561 | 9.16564 | 13515 ft | 334 kts | 70° |
| 2026-05-04 18:25 | 53.78346 | 9.20246 | 12877 ft | 331 kts | 70° |
| 2026-05-04 18:26 | 53.79117 | 9.23879 | 12614 ft | 325 kts | 70° |
| 2026-05-04 18:26 | 53.79875 | 9.27456 | 12067 ft | 322 kts | 70° |
| 2026-05-04 18:26 | 53.80622 | 9.30958 | 11427 ft | 320 kts | 70° |
| 2026-05-04 18:26 | 53.81319 | 9.34487 | 10923 ft | 312 kts | 76° |
| 2026-05-04 18:27 | 53.81756 | 9.38057 | 10775 ft | 312 kts | 79° |
| 2026-05-04 18:27 | 53.82187 | 9.41662 | 10627 ft | 312 kts | 79° |
| 2026-05-04 18:27 | 53.82626 | 9.45261 | 10452 ft | 313 kts | 78° |
| 2026-05-04 18:27 | 53.83067 | 9.48858 | 10276 ft | 311 kts | 78° |
| 2026-05-04 18:28 | 53.83506 | 9.52449 | 9952 ft | 313 kts | 79° |
| 2026-05-04 18:28 | 53.83943 | 9.56028 | 9397 ft | 308 kts | 79° |
| 2026-05-04 18:28 | 53.84371 | 9.59556 | 8846 ft | 304 kts | 79° |
| 2026-05-04 18:28 | 53.84792 | 9.63051 | 8376 ft | 302 kts | 79° |
| 2026-05-04 18:29 | 53.85207 | 9.66522 | 7939 ft | 300 kts | 79° |
| 2026-05-04 18:29 | 53.85609 | 9.69923 | 7534 ft | 298 kts | 79° |
| 2026-05-04 18:29 | 53.86009 | 9.73316 | 7109 ft | 289 kts | 79° |
| 2026-05-04 18:29 | 53.86394 | 9.76595 | 6696 ft | 279 kts | 78° |
| 2026-05-04 18:30 | 53.86536 | 9.82893 | 5892 ft | 265 kts | 98° |
| 2026-05-04 18:30 | 53.86315 | 9.85983 | 5529 ft | 263 kts | 98° |
| 2026-05-04 18:30 | 53.86099 | 9.89055 | 5171 ft | 262 kts | 97° |
| 2026-05-04 18:31 | 53.85884 | 9.92105 | 4823 ft | 260 kts | 97° |
| 2026-05-04 18:31 | 53.85669 | 9.95144 | 4462 ft | 260 kts | 97° |
| 2026-05-04 18:31 | 53.85441 | 9.98302 | 4095 ft | 276 kts | 97° |
| 2026-05-04 18:31 | 53.85209 | 10.01497 | 3765 ft | 277 kts | 97° |
| 2026-05-04 18:32 | 53.84972 | 10.04721 | 3480 ft | 275 kts | 97° |
| 2026-05-04 18:32 | 53.84600 | 10.07886 | 3227 ft | 272 kts | 110° |
| 2026-05-04 18:32 | 53.83929 | 10.10763 | 3042 ft | 251 kts | 114° |
| 2026-05-04 18:32 | 53.83259 | 10.13409 | 3014 ft | 242 kts | 114° |
| 2026-05-04 18:33 | 53.82592 | 10.16010 | 3012 ft | 241 kts | 114° |
| 2026-05-04 18:33 | 53.81920 | 10.18606 | 3013 ft | 241 kts | 115° |
| 2026-05-04 18:33 | 53.81254 | 10.21193 | 3000 ft | 237 kts | 114° |
| 2026-05-04 18:33 | 53.80607 | 10.23612 | 2998 ft | 220 kts | 122° |
| 2026-05-04 18:34 | 53.79613 | 10.25393 | 3013 ft | 205 kts | 151° |
| 2026-05-04 18:34 | 53.78270 | 10.26214 | 3012 ft | 205 kts | 178° |
| 2026-05-04 18:34 | 53.76880 | 10.25942 | 3012 ft | 201 kts | 204° |
| 2026-05-04 18:34 | 53.75735 | 10.24678 | 3009 ft | 196 kts | 230° |
| 2026-05-04 18:35 | 53.74856 | 10.22907 | 3010 ft | 197 kts | 233° |
| 2026-05-04 18:35 | 53.73989 | 10.21124 | 3009 ft | 197 kts | 232° |
| 2026-05-04 18:35 | 53.73116 | 10.19337 | 2918 ft | 197 kts | 232° |
| 2026-05-04 18:35 | 53.72255 | 10.17578 | 2705 ft | 197 kts | 232° |
| 2026-05-04 18:36 | 53.71385 | 10.15802 | 2455 ft | 195 kts | 232° |
| 2026-05-04 18:36 | 53.70548 | 10.14097 | 2221 ft | 183 kts | 233° |
| 2026-05-04 18:36 | 53.69762 | 10.12497 | 1957 ft | 172 kts | 233° |
| 2026-05-04 18:36 | 53.68998 | 10.10939 | 1727 ft | 173 kts | 233° |
| 2026-05-04 18:37 | 53.68229 | 10.09372 | 1492 ft | 172 kts | 233° |
| 2026-05-04 18:37 | 53.67495 | 10.07881 | 1286 ft | 157 kts | 233° |
| 2026-05-04 18:37 | 53.66819 | 10.06508 | 1064 ft | 148 kts | 233° |
| 2026-05-04 18:37 | 53.66168 | 10.05184 | 866 ft | 145 kts | 233° |
| 2026-05-04 18:38 | 53.65529 | 10.03878 | 666 ft | 144 kts | 233° |
| 2026-05-04 18:38 | 53.64902 | 10.02594 | 528 ft | 143 kts | 233° |
| 2026-05-04 18:38 | 53.64266 | 10.01306 | 314 ft | 143 kts | 233° |
| 2026-05-04 18:38 | 53.63635 | 10.00034 | 96 ft | 141 kts | 233° |
| 2026-05-04 18:39 | 53.63085 | 9.98924 | 52 ft | 88 kts | 230° |
| 2026-05-04 18:39 | 53.62868 | 9.98521 | 52 ft | 20 kts | 209° |
| 2026-05-04 18:39 | 53.62750 | 9.98471 | 52 ft | 13 kts | 182° |
| 2026-05-04 18:39 | 53.62721 | 9.98473 | 51 ft | 0 kts | 175° |
| 2026-05-04 18:40 | 53.62716 | 9.98484 | 49 ft | 7 kts | 133° |
| 2026-05-04 18:40 | 53.62735 | 9.98634 | 50 ft | 14 kts | 54° |
| 2026-05-04 18:40 | 53.62790 | 9.98758 | 51 ft | 12 kts | 50° |
| 2026-05-04 18:40 | 53.62859 | 9.98898 | 51 ft | 21 kts | 50° |
| 2026-05-04 18:41 | 53.62954 | 9.99088 | 51 ft | 20 kts | 50° |
| 2026-05-04 18:41 | 53.63038 | 9.99260 | 51 ft | 18 kts | 52° |
| 2026-05-04 18:41 | 53.63078 | 9.99350 | 51 ft | 0 kts | 54° |
| 2026-05-04 18:42 | 53.63079 | 9.99353 | 51 ft | 2 kts | 54° |
| 2026-05-04 18:42 | 53.63115 | 9.99437 | 52 ft | 10 kts | 54° |
| 2026-05-04 18:42 | 53.63151 | 9.99524 | 51 ft | 9 kts | 54° |
| 2026-05-04 18:43 | 53.63209 | 9.99648 | 51 ft | 15 kts | 51° |
| 2026-05-04 18:43 | 53.63200 | 9.99780 | 51 ft | 12 kts | 135° |
| 2026-05-04 18:43 | 53.63134 | 9.99849 | 51 ft | 10 kts | 150° |
| 2026-05-04 18:43 | 53.63075 | 9.99903 | 51 ft | 9 kts | 154° |
| 2026-05-04 18:44 | 53.63021 | 9.99943 | 51 ft | 8 kts | 156° |
| 2026-05-04 18:44 | 53.63005 | 9.99955 | 51 ft | 7 kts | 156° |
| 2026-05-04 18:44 | 53.62938 | 10.00008 | 51 ft | 5 kts | 152° |
| 2026-05-04 18:44 | 53.62908 | 10.00074 | 51 ft | 8 kts | 91° |
| 2026-05-04 18:45 | 53.62919 | 10.00103 | 49 ft | 0 kts | 33° |
| 2026-05-04 18:45 | 53.62946 | 10.00133 | 51 ft | 13 kts | 32° |
| 2026-05-04 18:45 | 53.62986 | 10.00202 | 51 ft | 6 kts | 81° |
| 2026-05-04 18:45 | 53.62974 | 10.00253 | 50 ft | 4 kts | 121° |
| 2026-05-04 18:46 | 53.62965 | 10.00276 | 51 ft | 0 kts | 124° |